Time,TemperatureF,DewpointF,PressureIn,WindDirection,WindDirectionDegrees,WindSpeedMPH,WindSpeedGustMPH,Humidity,HourlyPrecipIn,Conditions,Clouds,dailyrainin,SoftwareType,DateUTC
2013-08-28 00:00:00,73.9,72.0,30.02,ENE,64,0.0,0.0,94,0.00,,,0.00,weatherlink.com 1.10,2013-08-28 05:00:00,
2013-08-28 00:15:00,73.6,72.0,30.02,ENE,64,0.0,0.0,94,0.00,,,0.00,weatherlink.com 1.10,2013-08-28 05:15:00,
2013-08-28 00:30:00,73.5,72.0,30.01,ENE,64,0.0,0.0,94,0.00,,,0.00,weatherlink.com 1.10,2013-08-28 05:30:00,
2013-08-28 00:45:00,73.2,71.0,30.01,ENE,64,0.0,0.0,94,0.00,,,0.00,weatherlink.com 1.10,2013-08-28 05:45:00,
2013-08-28 01:00:00,72.9,71.0,30.00,ENE,64,0.0,0.0,95,0.00,,,0.00,weatherlink.com 1.10,2013-08-28 06:00:00,
2013-08-28 01:15:00,72.6,71.0,30.00,ENE,64,0.0,0.0,95,0.00,,,0.00,weatherlink.com 1.10,2013-08-28 06:15:00,
2013-08-28 01:30:00,72.4,71.0,30.00,ENE,64,0.0,0.0,95,0.00,,,0.00,weatherlink.com 1.10,2013-08-28 06:30:00,
2013-08-28 01:45:00,72.2,71.0,30.01,ENE,64,0.0,0.0,95,0.00,,,0.00,weatherlink.com 1.10,2013-08-28 06:45:00,
2013-08-28 02:00:00,72.0,71.0,30.00,ENE,64,0.0,0.0,96,0.00,,,0.00,weatherlink.com 1.10,2013-08-28 07:00:00,
2013-08-28 02:15:00,71.7,71.0,30.00,ENE,64,0.0,0.0,96,0.00,,,0.00,weatherlink.com 1.10,2013-08-28 07:15:00,
2013-08-28 02:30:00,71.5,70.0,30.00,ENE,64,0.0,0.0,96,0.00,,,0.00,weatherlink.com 1.10,2013-08-28 07:30:00,
2013-08-28 02:45:00,71.3,70.0,30.00,ENE,64,0.0,0.0,96,0.00,,,0.00,weatherlink.com 1.10,2013-08-28 07:45:00,
2013-08-28 03:00:00,71.1,70.0,30.00,ENE,64,0.0,0.0,96,0.00,,,0.00,weatherlink.com 1.10,2013-08-28 08:00:00,
2013-08-28 03:15:00,71.0,70.0,30.00,ENE,64,0.0,0.0,97,0.00,,,0.00,weatherlink.com 1.10,2013-08-28 08:15:00,
2013-08-28 03:30:00,70.9,70.0,30.00,ENE,64,0.0,0.0,97,0.00,,,0.00,weatherlink.com 1.10,2013-08-28 08:30:00,
2013-08-28 03:45:00,70.8,70.0,30.00,ENE,64,0.0,0.0,97,0.00,,,0.00,weatherlink.com 1.10,2013-08-28 08:45:00,
2013-08-28 04:00:00,70.6,70.0,30.00,ENE,64,0.0,0.0,97,0.00,,,0.00,weatherlink.com 1.10,2013-08-28 09:00:00,
2013-08-28 04:15:00,70.7,70.0,30.00,ENE,64,0.0,0.0,98,0.00,,,0.00,weatherlink.com 1.10,2013-08-28 09:15:00,
2013-08-28 04:30:00,70.6,70.0,30.00,ENE,64,0.0,0.0,97,0.00,,,0.00,weatherlink.com 1.10,2013-08-28 09:30:00,
2013-08-28 04:45:00,70.5,70.0,30.00,ENE,64,0.0,0.0,97,0.00,,,0.00,weatherlink.com 1.10,2013-08-28 09:45:00,
2013-08-28 05:00:00,70.3,69.0,30.00,ENE,64,0.0,0.0,97,0.00,,,0.00,weatherlink.com 1.10,2013-08-28 10:00:00,
2013-08-28 05:15:00,70.2,69.0,30.00,ENE,64,0.0,0.0,97,0.00,,,0.00,weatherlink.com 1.10,2013-08-28 10:15:00,
2013-08-28 05:30:00,70.1,70.0,30.01,ENE,64,0.0,0.0,98,0.00,,,0.00,weatherlink.com 1.10,2013-08-28 10:30:00,
2013-08-28 05:45:00,70.1,70.0,30.01,ENE,64,0.0,0.0,98,0.00,,,0.00,weatherlink.com 1.10,2013-08-28 10:45:00,
2013-08-28 06:00:00,70.4,70.0,30.02,ENE,64,0.0,0.0,98,0.00,,,0.00,weatherlink.com 1.10,2013-08-28 11:00:00,
2013-08-28 06:15:00,70.3,70.0,30.02,ENE,64,0.0,0.0,98,0.00,,,0.00,weatherlink.com 1.10,2013-08-28 11:15:00,
2013-08-28 06:30:00,70.6,70.0,30.03,ENE,64,0.0,0.0,98,0.00,,,0.00,weatherlink.com 1.10,2013-08-28 11:30:00,
2013-08-28 06:45:00,70.5,70.0,30.02,ENE,64,0.0,0.0,98,0.00,,,0.00,weatherlink.com 1.10,2013-08-28 11:45:00,
2013-08-28 07:00:00,70.5,70.0,30.03,ENE,64,0.0,0.0,98,0.00,,,0.00,weatherlink.com 1.10,2013-08-28 12:00:00,
2013-08-28 07:15:00,70.6,70.0,30.03,ENE,64,0.0,0.0,98,0.00,,,0.00,weatherlink.com 1.10,2013-08-28 12:15:00,
2013-08-28 07:30:00,71.4,71.0,30.04,ENE,64,0.0,0.0,99,0.00,,,0.00,weatherlink.com 1.10,2013-08-28 12:30:00,
2013-08-28 07:45:00,72.0,72.0,30.04,ENE,64,0.0,0.0,99,0.00,,,0.00,weatherlink.com 1.10,2013-08-28 12:45:00,
2013-08-28 08:00:00,73.0,73.0,30.04,ENE,64,0.0,0.0,99,0.00,,,0.00,weatherlink.com 1.10,2013-08-28 13:00:00,
2013-08-28 08:15:00,74.0,74.0,30.04,ENE,64,0.0,0.0,99,0.00,,,0.00,weatherlink.com 1.10,2013-08-28 13:15:00,
2013-08-28 08:30:00,75.4,75.0,30.05,ENE,64,0.0,0.0,98,0.00,,,0.00,weatherlink.com 1.10,2013-08-28 13:30:00,
2013-08-28 08:45:00,77.1,74.0,30.05,ENE,64,0.0,0.0,91,0.00,,,0.00,weatherlink.com 1.10,2013-08-28 13:45:00,
2013-08-28 09:00:00,79.5,75.0,30.05,ENE,64,0.0,0.0,86,0.00,,,0.00,weatherlink.com 1.10,2013-08-28 14:00:00,
2013-08-28 09:15:00,82.2,76.0,30.05,ENE,64,0.0,0.0,82,0.00,,,0.00,weatherlink.com 1.10,2013-08-28 14:15:00,
2013-08-28 09:31:00,83.3,75.0,30.05,ENE,59,0.0,0.0,77,0.00,,,0.00,weatherlink.com 1.10,2013-08-28 14:31:00,
2013-08-28 09:46:00,84.8,75.0,30.06,NNE,30,0.0,0.0,72,0.00,,,0.00,weatherlink.com 1.10,2013-08-28 14:46:00,
2013-08-28 10:01:00,85.5,74.0,30.06,NNE,31,0.0,0.0,69,0.00,,,0.00,weatherlink.com 1.10,2013-08-28 15:01:00,
2013-08-28 10:16:00,86.5,74.0,30.06,WNW,303,0.0,1.0,66,0.00,,,0.00,weatherlink.com 1.10,2013-08-28 15:16:00,
2013-08-28 10:31:00,87.5,75.0,30.06,NNE,33,0.0,2.0,66,0.00,,,0.00,weatherlink.com 1.10,2013-08-28 15:31:00,
2013-08-28 10:46:00,87.3,74.0,30.06,NE,43,0.0,2.0,65,0.00,,,0.00,weatherlink.com 1.10,2013-08-28 15:46:00,
2013-08-28 11:01:00,87.8,75.0,30.06,East,79,0.0,5.0,65,0.00,,,0.00,weatherlink.com 1.10,2013-08-28 16:01:00,
2013-08-28 11:16:00,88.8,76.0,30.06,NNW,332,0.0,3.0,65,0.00,,,0.00,weatherlink.com 1.10,2013-08-28 16:16:00,
2013-08-28 11:31:00,89.6,76.0,30.06,WNW,291,0.0,2.0,64,0.00,,,0.00,weatherlink.com 1.10,2013-08-28 16:31:00,
2013-08-28 11:46:00,89.0,77.0,30.05,North,355,0.0,3.0,67,0.00,,,0.00,weatherlink.com 1.10,2013-08-28 16:46:00,
2013-08-28 12:01:00,88.9,76.0,30.05,NE,48,0.0,5.0,65,0.00,,,0.00,weatherlink.com 1.10,2013-08-28 17:01:00,
2013-08-28 12:16:00,88.6,75.0,30.04,East,79,0.0,1.0,64,0.00,,,0.00,weatherlink.com 1.10,2013-08-28 17:16:00,
2013-08-28 12:31:00,88.4,75.0,30.04,NW,320,0.0,4.0,65,0.00,,,0.00,weatherlink.com 1.10,2013-08-28 17:31:00,
2013-08-28 12:46:00,89.8,76.0,30.03,NW,315,0.0,2.0,63,0.00,,,0.00,weatherlink.com 1.10,2013-08-28 17:46:00,
2013-08-28 13:01:00,91.0,75.0,30.03,NW,313,0.0,2.0,60,0.00,,,0.00,weatherlink.com 1.10,2013-08-28 18:01:00,
2013-08-28 13:31:00,90.8,74.0,30.02,SSW,202,0.0,1.0,59,0.00,,,0.00,weatherlink.com 1.10,2013-08-28 18:31:00,
2013-08-28 13:46:00,91.1,77.0,30.02,NNE,33,0.0,0.0,63,0.00,,,0.00,weatherlink.com 1.10,2013-08-28 18:46:00,
2013-08-28 14:01:00,91.0,75.0,30.02,NNE,14,0.0,1.0,60,0.00,,,0.00,weatherlink.com 1.10,2013-08-28 19:01:00,
2013-08-28 14:16:00,91.3,74.0,30.01,NW,307,0.0,0.0,58,0.00,,,0.00,weatherlink.com 1.10,2013-08-28 19:16:00,
2013-08-28 14:31:00,91.6,75.0,30.01,ENE,75,0.0,1.0,58,0.00,,,0.00,weatherlink.com 1.10,2013-08-28 19:31:00,
2013-08-28 14:46:00,90.4,74.0,30.00,ENE,63,0.0,2.0,59,0.00,,,0.00,weatherlink.com 1.10,2013-08-28 19:46:00,
2013-08-28 15:01:00,90.6,74.0,29.99,ENE,69,0.0,3.0,59,0.00,,,0.00,weatherlink.com 1.10,2013-08-28 20:01:00,
2013-08-28 15:16:00,90.9,75.0,29.99,ENE,57,0.0,6.0,60,0.00,,,0.00,weatherlink.com 1.10,2013-08-28 20:16:00,
2013-08-28 15:31:00,91.3,74.0,29.98,East,89,0.0,3.0,57,0.00,,,0.00,weatherlink.com 1.10,2013-08-28 20:31:00,
2013-08-28 15:46:00,91.7,74.0,29.98,East,86,1.0,7.0,56,0.00,,,0.00,weatherlink.com 1.10,2013-08-28 20:46:00,
2013-08-28 16:01:00,91.9,74.0,29.98,East,84,1.0,1.0,57,0.00,,,0.00,weatherlink.com 1.10,2013-08-28 21:01:00,
2013-08-28 16:16:00,92.5,74.0,29.98,NNE,16,0.0,4.0,55,0.00,,,0.00,weatherlink.com 1.10,2013-08-28 21:16:00,
2013-08-28 16:31:00,91.5,74.0,29.97,NE,41,0.0,10.0,56,0.00,,,0.00,weatherlink.com 1.10,2013-08-28 21:31:00,
2013-08-28 16:46:00,90.6,73.0,29.97,East,95,3.0,5.0,57,0.00,,,0.00,weatherlink.com 1.10,2013-08-28 21:46:00,
2013-08-28 17:01:00,90.7,73.0,29.97,ENE,71,0.0,5.0,56,0.00,,,0.00,weatherlink.com 1.10,2013-08-28 22:01:00,
2013-08-28 17:16:00,89.8,73.0,29.97,ESE,102,0.0,7.0,57,0.00,,,0.00,weatherlink.com 1.10,2013-08-28 22:16:00,
2013-08-28 17:31:00,89.7,73.0,29.97,ENE,68,0.0,5.0,59,0.00,,,0.00,weatherlink.com 1.10,2013-08-28 22:31:00,
2013-08-28 18:01:00,88.0,72.0,29.97,East,84,2.0,7.0,59,0.00,,,0.00,weatherlink.com 1.10,2013-08-28 23:01:00,
2013-08-28 18:16:00,87.6,72.0,29.97,East,83,0.0,3.0,60,0.00,,,0.00,weatherlink.com 1.10,2013-08-28 23:16:00,
2013-08-28 18:31:00,87.4,72.0,29.97,East,80,0.0,3.0,61,0.00,,,0.00,weatherlink.com 1.10,2013-08-28 23:31:00,
2013-08-28 18:46:00,86.6,72.0,29.97,East,84,0.0,2.0,63,0.00,,,0.00,weatherlink.com 1.10,2013-08-28 23:46:00,
2013-08-28 19:01:00,85.7,72.0,29.98,East,87,0.0,0.0,64,0.00,,,0.00,weatherlink.com 1.10,2013-08-29 00:01:00,
2013-08-28 19:16:00,84.7,72.0,29.98,East,92,0.0,1.0,66,0.00,,,0.00,weatherlink.com 1.10,2013-08-29 00:16:00,
2013-08-28 19:31:00,83.4,72.0,29.98,East,101,0.0,0.0,68,0.00,,,0.00,weatherlink.com 1.10,2013-08-29 00:31:00,
2013-08-28 19:46:00,82.4,72.0,29.98,East,101,0.0,0.0,70,0.00,,,0.00,weatherlink.com 1.10,2013-08-29 00:46:00,
2013-08-28 20:01:00,81.5,72.0,29.98,East,100,0.0,0.0,72,0.00,,,0.00,weatherlink.com 1.10,2013-08-29 01:01:00,
2013-08-28 20:17:00,80.9,72.0,29.99,East,100,0.0,0.0,73,0.00,,,0.00,weatherlink.com 1.10,2013-08-29 01:17:00,
2013-08-28 20:32:00,80.5,72.0,29.99,East,100,0.0,0.0,74,0.00,,,0.00,weatherlink.com 1.10,2013-08-29 01:32:00,
2013-08-28 20:47:00,79.9,72.0,29.99,East,100,0.0,0.0,77,0.00,,,0.00,weatherlink.com 1.10,2013-08-29 01:47:00,
2013-08-28 21:02:00,78.9,71.0,29.99,East,100,0.0,0.0,77,0.00,,,0.00,weatherlink.com 1.10,2013-08-29 02:02:00,
2013-08-28 21:17:00,78.1,72.0,30.00,East,100,0.0,0.0,80,0.00,,,0.00,weatherlink.com 1.10,2013-08-29 02:17:00,
2013-08-28 21:32:00,77.4,71.0,30.00,East,100,0.0,0.0,81,0.00,,,0.00,weatherlink.com 1.10,2013-08-29 02:32:00,
2013-08-28 21:47:00,76.7,72.0,30.00,East,100,0.0,0.0,84,0.00,,,0.00,weatherlink.com 1.10,2013-08-29 02:47:00,
2013-08-28 22:02:00,76.0,71.0,30.00,East,100,0.0,0.0,85,0.00,,,0.00,weatherlink.com 1.10,2013-08-29 03:02:00,
2013-08-28 22:17:00,75.4,71.0,30.00,East,100,0.0,0.0,87,0.00,,,0.00,weatherlink.com 1.10,2013-08-29 03:17:00,
2013-08-28 22:32:00,75.0,72.0,30.00,East,100,0.0,0.0,89,0.00,,,0.00,weatherlink.com 1.10,2013-08-29 03:32:00,
2013-08-28 22:47:00,74.5,71.0,30.01,East,100,0.0,0.0,89,0.00,,,0.00,weatherlink.com 1.10,2013-08-29 03:47:00,
2013-08-28 23:02:00,74.1,71.0,30.01,East,100,0.0,0.0,90,0.00,,,0.00,weatherlink.com 1.10,2013-08-29 04:02:00,
2013-08-28 23:17:00,73.7,71.0,30.01,East,100,0.0,0.0,91,0.00,,,0.00,weatherlink.com 1.10,2013-08-29 04:17:00,
2013-08-28 23:32:00,73.3,71.0,30.01,East,100,0.0,0.0,91,0.00,,,0.00,weatherlink.com 1.10,2013-08-29 04:32:00,
2013-08-28 23:47:00,73.0,71.0,30.02,East,100,0.0,0.0,92,0.00,,,0.00,weatherlink.com 1.10,2013-08-29 04:47:00,